sensor_id;sensor_type;location;lat;lon;timestamp;P1;durP1;ratioP1;P2;durP2;ratioP2
60726;SDS011;46577;49.004;12.120;2023-07-13T00:00:17;8.00;;;4.40;;
60726;SDS011;46577;49.004;12.120;2023-07-13T00:02:43;9.27;;;4.20;;
60726;SDS011;46577;49.004;12.120;2023-07-13T00:05:09;4.90;;;4.13;;
60726;SDS011;46577;49.004;12.120;2023-07-13T00:07:36;9.60;;;4.40;;
60726;SDS011;46577;49.004;12.120;2023-07-13T00:10:03;6.57;;;4.10;;
60726;SDS011;46577;49.004;12.120;2023-07-13T00:12:34;7.80;;;4.40;;
60726;SDS011;46577;49.004;12.120;2023-07-13T00:15:02;10.90;;;4.37;;
60726;SDS011;46577;49.004;12.120;2023-07-13T00:17:28;5.97;;;3.87;;
60726;SDS011;46577;49.004;12.120;2023-07-13T00:19:55;4.60;;;4.07;;
60726;SDS011;46577;49.004;12.120;2023-07-13T00:22:21;5.30;;;3.90;;
60726;SDS011;46577;49.004;12.120;2023-07-13T00:24:50;5.63;;;4.00;;
60726;SDS011;46577;49.004;12.120;2023-07-13T00:27:17;5.83;;;3.97;;
60726;SDS011;46577;49.004;12.120;2023-07-13T00:29:43;7.10;;;4.20;;
60726;SDS011;46577;49.004;12.120;2023-07-13T00:32:10;6.20;;;3.70;;
60726;SDS011;46577;49.004;12.120;2023-07-13T00:34:37;5.33;;;3.67;;
60726;SDS011;46577;49.004;12.120;2023-07-13T00:37:03;5.30;;;4.50;;
60726;SDS011;46577;49.004;12.120;2023-07-13T00:39:31;7.83;;;3.73;;
60726;SDS011;46577;49.004;12.120;2023-07-13T00:41:57;7.13;;;4.13;;
60726;SDS011;46577;49.004;12.120;2023-07-13T00:44:23;4.13;;;3.37;;
60726;SDS011;46577;49.004;12.120;2023-07-13T00:46:50;7.70;;;4.40;;
60726;SDS011;46577;49.004;12.120;2023-07-13T00:49:18;6.47;;;4.30;;
60726;SDS011;46577;49.004;12.120;2023-07-13T00:51:45;3.50;;;3.20;;
60726;SDS011;46577;49.004;12.120;2023-07-13T00:54:15;5.77;;;4.60;;
60726;SDS011;46577;49.004;12.120;2023-07-13T00:56:43;6.77;;;4.03;;
60726;SDS011;46577;49.004;12.120;2023-07-13T00:59:10;5.67;;;3.90;;
60726;SDS011;46577;49.004;12.120;2023-07-13T01:01:37;4.17;;;3.77;;
60726;SDS011;46577;49.004;12.120;2023-07-13T01:04:04;5.77;;;3.60;;
60726;SDS011;46577;49.004;12.120;2023-07-13T01:06:33;5.20;;;4.17;;
60726;SDS011;46577;49.004;12.120;2023-07-13T01:08:59;5.87;;;4.57;;
60726;SDS011;46577;49.004;12.120;2023-07-13T01:11:25;5.67;;;4.60;;
60726;SDS011;46577;49.004;12.120;2023-07-13T01:13:52;5.93;;;4.63;;
60726;SDS011;46577;49.004;12.120;2023-07-13T01:16:26;7.70;;;4.60;;
60726;SDS011;46577;49.004;12.120;2023-07-13T01:18:52;7.27;;;5.03;;
60726;SDS011;46577;49.004;12.120;2023-07-13T01:21:18;8.20;;;4.30;;
60726;SDS011;46577;49.004;12.120;2023-07-13T01:23:45;10.73;;;5.27;;
60726;SDS011;46577;49.004;12.120;2023-07-13T01:26:11;7.37;;;5.00;;
60726;SDS011;46577;49.004;12.120;2023-07-13T01:28:37;12.53;;;5.13;;
60726;SDS011;46577;49.004;12.120;2023-07-13T01:31:03;9.73;;;5.20;;
60726;SDS011;46577;49.004;12.120;2023-07-13T01:33:29;5.57;;;4.87;;
60726;SDS011;46577;49.004;12.120;2023-07-13T01:35:55;5.93;;;4.97;;
60726;SDS011;46577;49.004;12.120;2023-07-13T01:38:24;6.73;;;5.87;;
60726;SDS011;46577;49.004;12.120;2023-07-13T01:40:51;7.30;;;5.90;;
60726;SDS011;46577;49.004;12.120;2023-07-13T01:43:18;6.30;;;5.70;;
60726;SDS011;46577;49.004;12.120;2023-07-13T01:45:44;9.63;;;6.03;;
60726;SDS011;46577;49.004;12.120;2023-07-13T01:48:10;13.97;;;5.87;;
60726;SDS011;46577;49.004;12.120;2023-07-13T01:50:37;10.30;;;6.53;;
60726;SDS011;46577;49.004;12.120;2023-07-13T01:53:03;7.77;;;6.60;;
60726;SDS011;46577;49.004;12.120;2023-07-13T01:55:29;11.70;;;6.27;;
60726;SDS011;46577;49.004;12.120;2023-07-13T01:57:55;9.23;;;7.10;;
60726;SDS011;46577;49.004;12.120;2023-07-13T02:00:21;7.67;;;6.87;;
60726;SDS011;46577;49.004;12.120;2023-07-13T02:02:48;8.10;;;6.20;;
60726;SDS011;46577;49.004;12.120;2023-07-13T02:05:14;12.50;;;7.30;;
60726;SDS011;46577;49.004;12.120;2023-07-13T02:07:40;11.43;;;6.80;;
60726;SDS011;46577;49.004;12.120;2023-07-13T02:10:07;8.90;;;6.87;;
60726;SDS011;46577;49.004;12.120;2023-07-13T02:12:33;10.47;;;6.73;;
60726;SDS011;46577;49.004;12.120;2023-07-13T02:15:00;11.53;;;6.90;;
60726;SDS011;46577;49.004;12.120;2023-07-13T02:17:26;7.60;;;6.40;;
60726;SDS011;46577;49.004;12.120;2023-07-13T02:19:52;7.90;;;7.07;;
60726;SDS011;46577;49.004;12.120;2023-07-13T02:22:19;7.33;;;6.10;;
60726;SDS011;46577;49.004;12.120;2023-07-13T02:24:45;12.10;;;6.73;;
60726;SDS011;46577;49.004;12.120;2023-07-13T02:27:11;9.87;;;7.30;;
60726;SDS011;46577;49.004;12.120;2023-07-13T02:29:37;10.33;;;6.23;;
60726;SDS011;46577;49.004;12.120;2023-07-13T02:32:03;8.97;;;6.37;;
60726;SDS011;46577;49.004;12.120;2023-07-13T02:34:29;8.10;;;5.77;;
60726;SDS011;46577;49.004;12.120;2023-07-13T02:36:55;13.13;;;6.70;;
60726;SDS011;46577;49.004;12.120;2023-07-13T02:39:21;14.57;;;6.60;;
60726;SDS011;46577;49.004;12.120;2023-07-13T02:41:47;9.17;;;5.93;;
60726;SDS011;46577;49.004;12.120;2023-07-13T02:44:13;13.53;;;7.10;;
60726;SDS011;46577;49.004;12.120;2023-07-13T02:46:39;7.97;;;6.23;;
60726;SDS011;46577;49.004;12.120;2023-07-13T02:49:05;10.87;;;6.97;;
60726;SDS011;46577;49.004;12.120;2023-07-13T02:51:32;10.93;;;6.20;;
60726;SDS011;46577;49.004;12.120;2023-07-13T02:54:01;8.83;;;6.37;;
60726;SDS011;46577;49.004;12.120;2023-07-13T02:56:28;11.77;;;6.37;;
60726;SDS011;46577;49.004;12.120;2023-07-13T02:58:55;7.17;;;6.40;;
60726;SDS011;46577;49.004;12.120;2023-07-13T03:01:21;8.37;;;7.57;;
60726;SDS011;46577;49.004;12.120;2023-07-13T03:03:48;12.80;;;7.17;;
60726;SDS011;46577;49.004;12.120;2023-07-13T03:06:15;13.37;;;8.20;;
60726;SDS011;46577;49.004;12.120;2023-07-13T03:08:41;15.80;;;7.73;;
60726;SDS011;46577;49.004;12.120;2023-07-13T03:11:09;11.77;;;7.80;;
60726;SDS011;46577;49.004;12.120;2023-07-13T03:13:39;18.33;;;7.77;;
60726;SDS011;46577;49.004;12.120;2023-07-13T03:16:05;11.03;;;8.23;;
60726;SDS011;46577;49.004;12.120;2023-07-13T03:18:31;10.27;;;8.17;;
60726;SDS011;46577;49.004;12.120;2023-07-13T03:20:57;13.90;;;7.90;;
60726;SDS011;46577;49.004;12.120;2023-07-13T03:23:24;11.60;;;7.37;;
60726;SDS011;46577;49.004;12.120;2023-07-13T03:25:50;15.27;;;7.80;;
60726;SDS011;46577;49.004;12.120;2023-07-13T03:28:26;12.73;;;9.40;;
60726;SDS011;46577;49.004;12.120;2023-07-13T03:30:58;11.43;;;8.70;;
60726;SDS011;46577;49.004;12.120;2023-07-13T03:33:25;20.53;;;9.03;;
60726;SDS011;46577;49.004;12.120;2023-07-13T03:35:51;11.97;;;8.43;;
60726;SDS011;46577;49.004;12.120;2023-07-13T03:38:17;20.40;;;9.30;;
60726;SDS011;46577;49.004;12.120;2023-07-13T03:40:42;12.30;;;8.23;;
60726;SDS011;46577;49.004;12.120;2023-07-13T03:43:08;17.37;;;9.63;;
60726;SDS011;46577;49.004;12.120;2023-07-13T03:45:34;11.87;;;9.20;;
60726;SDS011;46577;49.004;12.120;2023-07-13T03:48:03;18.20;;;9.97;;
60726;SDS011;46577;49.004;12.120;2023-07-13T03:50:30;19.33;;;8.43;;
60726;SDS011;46577;49.004;12.120;2023-07-13T03:52:57;25.53;;;9.70;;
60726;SDS011;46577;49.004;12.120;2023-07-13T03:55:23;19.27;;;10.80;;
60726;SDS011;46577;49.004;12.120;2023-07-13T03:57:53;16.83;;;9.57;;
60726;SDS011;46577;49.004;12.120;2023-07-13T04:00:19;23.27;;;9.03;;
60726;SDS011;46577;49.004;12.120;2023-07-13T04:02:45;16.50;;;9.50;;
60726;SDS011;46577;49.004;12.120;2023-07-13T04:05:14;13.57;;;8.90;;
60726;SDS011;46577;49.004;12.120;2023-07-13T04:07:40;11.70;;;8.50;;
60726;SDS011;46577;49.004;12.120;2023-07-13T04:10:06;11.67;;;8.60;;
60726;SDS011;46577;49.004;12.120;2023-07-13T04:12:32;16.13;;;8.40;;
60726;SDS011;46577;49.004;12.120;2023-07-13T04:14:58;14.80;;;7.90;;
60726;SDS011;46577;49.004;12.120;2023-07-13T04:17:24;14.00;;;7.50;;
60726;SDS011;46577;49.004;12.120;2023-07-13T04:19:50;11.10;;;7.10;;
60726;SDS011;46577;49.004;12.120;2023-07-13T04:22:16;11.73;;;6.67;;
60726;SDS011;46577;49.004;12.120;2023-07-13T04:24:42;12.20;;;6.80;;
60726;SDS011;46577;49.004;12.120;2023-07-13T04:27:08;17.50;;;6.47;;
60726;SDS011;46577;49.004;12.120;2023-07-13T04:29:34;14.53;;;5.97;;
60726;SDS011;46577;49.004;12.120;2023-07-13T04:32:00;13.43;;;6.40;;
60726;SDS011;46577;49.004;12.120;2023-07-13T04:34:26;14.63;;;6.43;;
60726;SDS011;46577;49.004;12.120;2023-07-13T04:36:53;12.47;;;5.47;;
60726;SDS011;46577;49.004;12.120;2023-07-13T04:39:19;12.93;;;5.90;;
60726;SDS011;46577;49.004;12.120;2023-07-13T04:41:45;20.63;;;5.00;;
60726;SDS011;46577;49.004;12.120;2023-07-13T04:44:11;9.03;;;5.20;;
60726;SDS011;46577;49.004;12.120;2023-07-13T04:46:37;14.57;;;4.87;;
60726;SDS011;46577;49.004;12.120;2023-07-13T04:49:03;9.90;;;4.03;;
60726;SDS011;46577;49.004;12.120;2023-07-13T04:51:29;12.40;;;4.97;;
60726;SDS011;46577;49.004;12.120;2023-07-13T04:53:55;8.60;;;4.60;;
60726;SDS011;46577;49.004;12.120;2023-07-13T04:56:21;16.37;;;4.70;;
60726;SDS011;46577;49.004;12.120;2023-07-13T04:58:47;15.43;;;4.57;;
60726;SDS011;46577;49.004;12.120;2023-07-13T05:01:13;22.63;;;5.00;;
60726;SDS011;46577;49.004;12.120;2023-07-13T05:03:39;18.50;;;4.70;;
60726;SDS011;46577;49.004;12.120;2023-07-13T05:06:06;14.80;;;4.43;;
60726;SDS011;46577;49.004;12.120;2023-07-13T05:08:35;9.07;;;4.20;;
60726;SDS011;46577;49.004;12.120;2023-07-13T05:11:01;8.90;;;3.97;;
60726;SDS011;46577;49.004;12.120;2023-07-13T05:13:27;7.23;;;3.77;;
60726;SDS011;46577;49.004;12.120;2023-07-13T05:16:00;7.63;;;4.50;;
60726;SDS011;46577;49.004;12.120;2023-07-13T05:18:26;7.23;;;2.73;;
60726;SDS011;46577;49.004;12.120;2023-07-13T05:20:59;10.60;;;4.27;;
60726;SDS011;46577;49.004;12.120;2023-07-13T05:23:25;8.13;;;3.60;;
60726;SDS011;46577;49.004;12.120;2023-07-13T05:25:51;7.80;;;3.40;;
60726;SDS011;46577;49.004;12.120;2023-07-13T05:28:17;6.00;;;2.90;;
60726;SDS011;46577;49.004;12.120;2023-07-13T05:30:46;3.80;;;2.73;;
60726;SDS011;46577;49.004;12.120;2023-07-13T05:33:12;9.97;;;3.87;;
60726;SDS011;46577;49.004;12.120;2023-07-13T05:35:38;3.67;;;2.90;;
60726;SDS011;46577;49.004;12.120;2023-07-13T05:38:05;4.50;;;2.50;;
60726;SDS011;46577;49.004;12.120;2023-07-13T05:40:31;7.20;;;2.90;;
60726;SDS011;46577;49.004;12.120;2023-07-13T05:42:57;10.77;;;2.53;;
60726;SDS011;46577;49.004;12.120;2023-07-13T05:45:23;9.60;;;2.70;;
60726;SDS011;46577;49.004;12.120;2023-07-13T05:47:49;4.13;;;2.70;;
60726;SDS011;46577;49.004;12.120;2023-07-13T05:50:15;5.17;;;2.70;;
60726;SDS011;46577;49.004;12.120;2023-07-13T05:52:41;6.90;;;3.67;;
60726;SDS011;46577;49.004;12.120;2023-07-13T05:55:07;3.53;;;2.30;;
60726;SDS011;46577;49.004;12.120;2023-07-13T05:57:33;2.87;;;2.20;;
60726;SDS011;46577;49.004;12.120;2023-07-13T05:59:59;4.33;;;2.20;;
60726;SDS011;46577;49.004;12.120;2023-07-13T06:02:25;6.03;;;2.50;;
60726;SDS011;46577;49.004;12.120;2023-07-13T06:04:52;5.43;;;2.77;;
60726;SDS011;46577;49.004;12.120;2023-07-13T06:07:18;4.20;;;2.07;;
60726;SDS011;46577;49.004;12.120;2023-07-13T06:09:43;2.93;;;2.13;;
60726;SDS011;46577;49.004;12.120;2023-07-13T06:12:09;6.40;;;2.10;;
60726;SDS011;46577;49.004;12.120;2023-07-13T06:14:35;3.70;;;2.13;;
60726;SDS011;46577;49.004;12.120;2023-07-13T06:17:01;7.27;;;2.70;;
60726;SDS011;46577;49.004;12.120;2023-07-13T06:19:28;4.73;;;2.70;;
60726;SDS011;46577;49.004;12.120;2023-07-13T06:21:54;5.50;;;1.90;;
60726;SDS011;46577;49.004;12.120;2023-07-13T06:24:21;5.27;;;1.57;;
60726;SDS011;46577;49.004;12.120;2023-07-13T06:26:47;4.97;;;1.80;;
60726;SDS011;46577;49.004;12.120;2023-07-13T06:29:13;3.30;;;1.90;;
60726;SDS011;46577;49.004;12.120;2023-07-13T06:31:39;4.20;;;2.03;;
60726;SDS011;46577;49.004;12.120;2023-07-13T06:34:05;2.30;;;1.90;;
60726;SDS011;46577;49.004;12.120;2023-07-13T06:36:31;3.43;;;1.97;;
60726;SDS011;46577;49.004;12.120;2023-07-13T06:38:57;2.97;;;1.50;;
60726;SDS011;46577;49.004;12.120;2023-07-13T06:41:23;3.87;;;1.77;;
60726;SDS011;46577;49.004;12.120;2023-07-13T06:43:51;3.80;;;1.77;;
60726;SDS011;46577;49.004;12.120;2023-07-13T06:46:19;4.17;;;2.03;;
60726;SDS011;46577;49.004;12.120;2023-07-13T06:48:45;4.30;;;1.60;;
60726;SDS011;46577;49.004;12.120;2023-07-13T06:51:11;4.17;;;1.80;;
60726;SDS011;46577;49.004;12.120;2023-07-13T06:53:37;3.70;;;1.30;;
60726;SDS011;46577;49.004;12.120;2023-07-13T06:56:03;1.87;;;1.67;;
60726;SDS011;46577;49.004;12.120;2023-07-13T06:58:30;6.90;;;1.57;;
60726;SDS011;46577;49.004;12.120;2023-07-13T07:00:56;7.70;;;1.67;;
60726;SDS011;46577;49.004;12.120;2023-07-13T07:03:22;3.53;;;1.80;;
60726;SDS011;46577;49.004;12.120;2023-07-13T07:05:48;1.77;;;1.15;;
60726;SDS011;46577;49.004;12.120;2023-07-13T07:08:14;1.77;;;1.25;;
60726;SDS011;46577;49.004;12.120;2023-07-13T07:10:40;1.92;;;0.88;;
60726;SDS011;46577;49.004;12.120;2023-07-13T07:13:06;4.85;;;1.52;;
60726;SDS011;46577;49.004;12.120;2023-07-13T07:15:33;2.28;;;1.52;;
60726;SDS011;46577;49.004;12.120;2023-07-13T07:17:59;2.20;;;0.98;;
60726;SDS011;46577;49.004;12.120;2023-07-13T07:20:25;3.95;;;1.48;;
60726;SDS011;46577;49.004;12.120;2023-07-13T07:22:52;2.42;;;1.15;;
60726;SDS011;46577;49.004;12.120;2023-07-13T07:25:18;1.40;;;0.90;;
60726;SDS011;46577;49.004;12.120;2023-07-13T07:27:44;2.58;;;1.10;;
60726;SDS011;46577;49.004;12.120;2023-07-13T07:30:11;2.15;;;1.10;;
60726;SDS011;46577;49.004;12.120;2023-07-13T07:32:37;1.20;;;1.10;;
60726;SDS011;46577;49.004;12.120;2023-07-13T07:35:03;1.20;;;0.70;;
60726;SDS011;46577;49.004;12.120;2023-07-13T07:37:29;2.15;;;0.80;;
60726;SDS011;46577;49.004;12.120;2023-07-13T07:39:55;1.65;;;0.80;;
60726;SDS011;46577;49.004;12.120;2023-07-13T07:42:21;1.00;;;1.00;;
60726;SDS011;46577;49.004;12.120;2023-07-13T07:44:47;2.78;;;1.00;;
60726;SDS011;46577;49.004;12.120;2023-07-13T07:47:13;3.00;;;1.50;;
60726;SDS011;46577;49.004;12.120;2023-07-13T07:49:40;3.90;;;0.90;;
60726;SDS011;46577;49.004;12.120;2023-07-13T07:52:06;1.40;;;0.93;;
60726;SDS011;46577;49.004;12.120;2023-07-13T07:54:32;1.95;;;1.15;;
60726;SDS011;46577;49.004;12.120;2023-07-13T07:56:58;6.13;;;1.05;;
60726;SDS011;46577;49.004;12.120;2023-07-13T07:59:24;6.45;;;1.27;;
60726;SDS011;46577;49.004;12.120;2023-07-13T08:01:50;1.52;;;0.93;;
60726;SDS011;46577;49.004;12.120;2023-07-13T08:04:16;1.95;;;1.20;;
60726;SDS011;46577;49.004;12.120;2023-07-13T08:06:42;5.05;;;0.77;;
60726;SDS011;46577;49.004;12.120;2023-07-13T08:09:09;3.00;;;0.90;;
60726;SDS011;46577;49.004;12.120;2023-07-13T08:11:35;1.80;;;0.98;;
60726;SDS011;46577;49.004;12.120;2023-07-13T08:14:01;2.03;;;1.20;;
60726;SDS011;46577;49.004;12.120;2023-07-13T08:16:27;0.93;;;0.73;;
60726;SDS011;46577;49.004;12.120;2023-07-13T08:18:53;2.50;;;0.82;;
60726;SDS011;46577;49.004;12.120;2023-07-13T08:21:19;4.15;;;1.10;;
60726;SDS011;46577;49.004;12.120;2023-07-13T08:23:46;3.63;;;0.95;;
60726;SDS011;46577;49.004;12.120;2023-07-13T08:26:12;2.28;;;0.70;;
60726;SDS011;46577;49.004;12.120;2023-07-13T08:28:38;2.00;;;0.93;;
60726;SDS011;46577;49.004;12.120;2023-07-13T08:31:05;2.65;;;1.08;;
60726;SDS011;46577;49.004;12.120;2023-07-13T08:33:32;3.00;;;1.02;;
60726;SDS011;46577;49.004;12.120;2023-07-13T08:35:58;6.50;;;1.20;;
60726;SDS011;46577;49.004;12.120;2023-07-13T08:38:24;4.13;;;0.60;;
60726;SDS011;46577;49.004;12.120;2023-07-13T08:40:52;1.30;;;0.90;;
60726;SDS011;46577;49.004;12.120;2023-07-13T08:43:19;3.78;;;0.70;;
60726;SDS011;46577;49.004;12.120;2023-07-13T08:45:49;0.70;;;0.70;;
60726;SDS011;46577;49.004;12.120;2023-07-13T08:48:21;1.60;;;0.73;;
60726;SDS011;46577;49.004;12.120;2023-07-13T08:53:14;0.98;;;0.77;;
60726;SDS011;46577;49.004;12.120;2023-07-13T08:55:41;3.92;;;0.90;;
60726;SDS011;46577;49.004;12.120;2023-07-13T08:58:14;1.30;;;0.80;;
60726;SDS011;46577;49.004;12.120;2023-07-13T09:00:48;7.60;;;0.80;;
60726;SDS011;46577;49.004;12.120;2023-07-13T09:03:22;2.38;;;0.90;;
60726;SDS011;46577;49.004;12.120;2023-07-13T09:05:53;1.45;;;0.80;;
60726;SDS011;46577;49.004;12.120;2023-07-13T09:08:38;0.80;;;0.68;;
60726;SDS011;46577;49.004;12.120;2023-07-13T09:13:41;3.17;;;0.73;;
60726;SDS011;46577;49.004;12.120;2023-07-13T09:16:09;2.42;;;1.08;;
60726;SDS011;46577;49.004;12.120;2023-07-13T09:18:44;2.45;;;0.80;;
60726;SDS011;46577;49.004;12.120;2023-07-13T09:21:18;1.08;;;0.80;;
60726;SDS011;46577;49.004;12.120;2023-07-13T09:23:47;2.35;;;1.00;;
60726;SDS011;46577;49.004;12.120;2023-07-13T09:26:17;2.50;;;0.80;;
60726;SDS011;46577;49.004;12.120;2023-07-13T09:28:46;5.78;;;0.90;;
60726;SDS011;46577;49.004;12.120;2023-07-13T09:31:16;4.22;;;1.05;;
60726;SDS011;46577;49.004;12.120;2023-07-13T09:33:45;1.58;;;1.02;;
60726;SDS011;46577;49.004;12.120;2023-07-13T09:36:18;11.65;;;1.33;;
60726;SDS011;46577;49.004;12.120;2023-07-13T09:38:44;2.38;;;1.00;;
60726;SDS011;46577;49.004;12.120;2023-07-13T09:46:34;0.65;;;0.60;;
60726;SDS011;46577;49.004;12.120;2023-07-13T09:49:00;0.77;;;0.73;;
60726;SDS011;46577;49.004;12.120;2023-07-13T09:51:26;1.42;;;0.80;;
60726;SDS011;46577;49.004;12.120;2023-07-13T09:53:53;0.70;;;0.70;;
60726;SDS011;46577;49.004;12.120;2023-07-13T09:56:23;2.80;;;1.00;;
60726;SDS011;46577;49.004;12.120;2023-07-13T09:58:49;1.25;;;0.60;;
60726;SDS011;46577;49.004;12.120;2023-07-13T10:01:16;2.08;;;0.73;;
60726;SDS011;46577;49.004;12.120;2023-07-13T10:03:56;1.75;;;0.80;;
60726;SDS011;46577;49.004;12.120;2023-07-13T10:06:23;2.53;;;0.85;;
60726;SDS011;46577;49.004;12.120;2023-07-13T10:08:50;1.25;;;0.70;;
60726;SDS011;46577;49.004;12.120;2023-07-13T10:13:44;1.25;;;0.60;;
60726;SDS011;46577;49.004;12.120;2023-07-13T10:16:10;1.08;;;0.70;;
60726;SDS011;46577;49.004;12.120;2023-07-13T10:21:18;3.58;;;0.60;;
60726;SDS011;46577;49.004;12.120;2023-07-13T10:23:50;1.10;;;0.52;;
60726;SDS011;46577;49.004;12.120;2023-07-13T10:26:19;1.30;;;0.70;;
60726;SDS011;46577;49.004;12.120;2023-07-13T10:28:47;2.38;;;0.73;;
60726;SDS011;46577;49.004;12.120;2023-07-13T10:31:16;1.55;;;0.60;;
60726;SDS011;46577;49.004;12.120;2023-07-13T10:33:43;7.03;;;0.60;;
60726;SDS011;46577;49.004;12.120;2023-07-13T10:36:28;2.22;;;0.70;;
60726;SDS011;46577;49.004;12.120;2023-07-13T10:38:55;0.75;;;0.60;;
60726;SDS011;46577;49.004;12.120;2023-07-13T10:41:23;1.52;;;0.88;;
60726;SDS011;46577;49.004;12.120;2023-07-13T10:43:51;2.53;;;0.77;;
60726;SDS011;46577;49.004;12.120;2023-07-13T10:46:19;3.38;;;1.20;;
60726;SDS011;46577;49.004;12.120;2023-07-13T10:48:46;5.88;;;0.82;;
60726;SDS011;46577;49.004;12.120;2023-07-13T10:51:14;1.75;;;1.48;;
60726;SDS011;46577;49.004;12.120;2023-07-13T10:53:41;11.13;;;1.50;;
60726;SDS011;46577;49.004;12.120;2023-07-13T10:58:46;2.13;;;1.13;;
60726;SDS011;46577;49.004;12.120;2023-07-13T11:01:14;4.50;;;1.20;;
60726;SDS011;46577;49.004;12.120;2023-07-13T11:06:11;5.17;;;1.00;;
60726;SDS011;46577;49.004;12.120;2023-07-13T11:11:08;5.13;;;1.20;;
60726;SDS011;46577;49.004;12.120;2023-07-13T11:18:51;2.25;;;1.10;;
60726;SDS011;46577;49.004;12.120;2023-07-13T11:21:22;2.53;;;1.10;;
60726;SDS011;46577;49.004;12.120;2023-07-13T11:23:52;2.00;;;1.00;;
60726;SDS011;46577;49.004;12.120;2023-07-13T11:29:25;1.87;;;1.50;;
60726;SDS011;46577;49.004;12.120;2023-07-13T11:31:53;1.27;;;1.17;;
60726;SDS011;46577;49.004;12.120;2023-07-13T11:36:54;1.53;;;1.03;;
60726;SDS011;46577;49.004;12.120;2023-07-13T11:39:27;3.63;;;1.60;;
60726;SDS011;46577;49.004;12.120;2023-07-13T11:41:56;2.47;;;1.77;;
60726;SDS011;46577;49.004;12.120;2023-07-13T11:44:23;4.80;;;1.30;;
60726;SDS011;46577;49.004;12.120;2023-07-13T11:47:00;2.37;;;1.10;;
60726;SDS011;46577;49.004;12.120;2023-07-13T11:49:38;5.90;;;1.37;;
60726;SDS011;46577;49.004;12.120;2023-07-13T11:52:04;3.23;;;1.50;;
60726;SDS011;46577;49.004;12.120;2023-07-13T11:54:32;2.03;;;1.40;;
60726;SDS011;46577;49.004;12.120;2023-07-13T11:57:02;1.73;;;1.27;;
60726;SDS011;46577;49.004;12.120;2023-07-13T11:59:31;3.50;;;1.70;;
60726;SDS011;46577;49.004;12.120;2023-07-13T12:01:58;2.80;;;1.27;;
60726;SDS011;46577;49.004;12.120;2023-07-13T12:04:28;1.30;;;1.20;;
60726;SDS011;46577;49.004;12.120;2023-07-13T12:09:32;3.80;;;2.63;;
60726;SDS011;46577;49.004;12.120;2023-07-13T12:12:01;3.03;;;1.07;;
60726;SDS011;46577;49.004;12.120;2023-07-13T12:14:27;1.63;;;1.53;;
60726;SDS011;46577;49.004;12.120;2023-07-13T12:16:53;2.10;;;1.63;;
60726;SDS011;46577;49.004;12.120;2023-07-13T12:19:21;4.07;;;1.93;;
60726;SDS011;46577;49.004;12.120;2023-07-13T12:21:47;2.67;;;1.60;;
60726;SDS011;46577;49.004;12.120;2023-07-13T12:24:14;2.23;;;1.27;;
60726;SDS011;46577;49.004;12.120;2023-07-13T12:26:41;2.60;;;1.63;;
60726;SDS011;46577;49.004;12.120;2023-07-13T12:29:07;5.27;;;1.97;;
60726;SDS011;46577;49.004;12.120;2023-07-13T12:34:07;2.67;;;1.90;;
60726;SDS011;46577;49.004;12.120;2023-07-13T12:36:36;3.47;;;1.20;;
60726;SDS011;46577;49.004;12.120;2023-07-13T12:39:04;3.77;;;1.70;;
60726;SDS011;46577;49.004;12.120;2023-07-13T12:41:33;3.87;;;1.50;;
60726;SDS011;46577;49.004;12.120;2023-07-13T12:43:59;3.97;;;1.50;;
60726;SDS011;46577;49.004;12.120;2023-07-13T12:46:26;3.37;;;1.27;;
60726;SDS011;46577;49.004;12.120;2023-07-13T12:48:53;4.47;;;1.93;;
60726;SDS011;46577;49.004;12.120;2023-07-13T12:51:26;2.13;;;1.10;;
60726;SDS011;46577;49.004;12.120;2023-07-13T12:53:57;5.93;;;1.40;;
60726;SDS011;46577;49.004;12.120;2023-07-13T12:56:25;5.80;;;1.63;;
60726;SDS011;46577;49.004;12.120;2023-07-13T12:58:58;2.60;;;1.60;;
60726;SDS011;46577;49.004;12.120;2023-07-13T13:01:27;3.00;;;1.50;;
60726;SDS011;46577;49.004;12.120;2023-07-13T13:03:53;3.70;;;1.30;;
60726;SDS011;46577;49.004;12.120;2023-07-13T13:06:24;1.77;;;1.30;;
60726;SDS011;46577;49.004;12.120;2023-07-13T13:08:52;3.07;;;1.33;;
60726;SDS011;46577;49.004;12.120;2023-07-13T13:11:18;3.17;;;1.60;;
60726;SDS011;46577;49.004;12.120;2023-07-13T13:13:45;1.83;;;1.33;;
60726;SDS011;46577;49.004;12.120;2023-07-13T13:16:17;3.83;;;1.53;;
60726;SDS011;46577;49.004;12.120;2023-07-13T13:18:44;2.63;;;1.40;;
60726;SDS011;46577;49.004;12.120;2023-07-13T13:21:11;5.50;;;1.67;;
60726;SDS011;46577;49.004;12.120;2023-07-13T13:23:37;2.80;;;1.50;;
60726;SDS011;46577;49.004;12.120;2023-07-13T13:26:04;2.27;;;1.40;;
60726;SDS011;46577;49.004;12.120;2023-07-13T13:28:32;3.87;;;1.40;;
60726;SDS011;46577;49.004;12.120;2023-07-13T13:30:58;3.43;;;1.53;;
60726;SDS011;46577;49.004;12.120;2023-07-13T13:33:24;2.80;;;1.50;;
60726;SDS011;46577;49.004;12.120;2023-07-13T13:35:50;3.80;;;1.20;;
60726;SDS011;46577;49.004;12.120;2023-07-13T13:38:17;3.20;;;1.60;;
60726;SDS011;46577;49.004;12.120;2023-07-13T13:40:45;3.20;;;1.33;;
60726;SDS011;46577;49.004;12.120;2023-07-13T13:45:43;2.50;;;1.57;;
60726;SDS011;46577;49.004;12.120;2023-07-13T13:48:17;4.07;;;1.43;;
60726;SDS011;46577;49.004;12.120;2023-07-13T13:50:43;1.40;;;1.30;;
60726;SDS011;46577;49.004;12.120;2023-07-13T13:53:10;9.13;;;1.70;;
60726;SDS011;46577;49.004;12.120;2023-07-13T13:55:37;2.80;;;1.60;;
60726;SDS011;46577;49.004;12.120;2023-07-13T13:58:03;3.40;;;1.70;;
60726;SDS011;46577;49.004;12.120;2023-07-13T14:00:30;3.83;;;1.40;;
60726;SDS011;46577;49.004;12.120;2023-07-13T14:02:56;3.00;;;1.40;;
60726;SDS011;46577;49.004;12.120;2023-07-13T14:05:23;5.40;;;1.80;;
60726;SDS011;46577;49.004;12.120;2023-07-13T14:07:51;1.73;;;1.10;;
60726;SDS011;46577;49.004;12.120;2023-07-13T14:10:18;1.70;;;1.47;;
60726;SDS011;46577;49.004;12.120;2023-07-13T14:12:45;2.27;;;1.30;;
60726;SDS011;46577;49.004;12.120;2023-07-13T14:15:24;3.00;;;1.53;;
60726;SDS011;46577;49.004;12.120;2023-07-13T14:17:50;6.23;;;2.20;;
60726;SDS011;46577;49.004;12.120;2023-07-13T14:20:17;2.53;;;1.33;;
60726;SDS011;46577;49.004;12.120;2023-07-13T14:22:43;2.30;;;1.27;;
60726;SDS011;46577;49.004;12.120;2023-07-13T14:25:13;3.70;;;1.40;;
60726;SDS011;46577;49.004;12.120;2023-07-13T14:27:40;2.03;;;1.13;;
60726;SDS011;46577;49.004;12.120;2023-07-13T14:30:12;4.97;;;1.67;;
60726;SDS011;46577;49.004;12.120;2023-07-13T14:32:39;4.00;;;1.40;;
60726;SDS011;46577;49.004;12.120;2023-07-13T14:35:05;3.00;;;1.33;;
60726;SDS011;46577;49.004;12.120;2023-07-13T14:37:31;1.73;;;1.40;;
60726;SDS011;46577;49.004;12.120;2023-07-13T14:39:58;2.80;;;1.47;;
60726;SDS011;46577;49.004;12.120;2023-07-13T14:42:24;1.30;;;1.20;;
60726;SDS011;46577;49.004;12.120;2023-07-13T14:44:50;3.03;;;1.43;;
60726;SDS011;46577;49.004;12.120;2023-07-13T14:47:16;3.63;;;1.50;;
60726;SDS011;46577;49.004;12.120;2023-07-13T14:49:43;5.10;;;1.53;;
60726;SDS011;46577;49.004;12.120;2023-07-13T14:52:12;2.87;;;1.30;;
60726;SDS011;46577;49.004;12.120;2023-07-13T14:54:39;6.93;;;1.80;;
60726;SDS011;46577;49.004;12.120;2023-07-13T14:57:12;2.40;;;1.30;;
60726;SDS011;46577;49.004;12.120;2023-07-13T14:59:38;2.37;;;1.53;;
60726;SDS011;46577;49.004;12.120;2023-07-13T15:02:12;2.30;;;1.60;;
60726;SDS011;46577;49.004;12.120;2023-07-13T15:04:39;3.87;;;1.40;;
60726;SDS011;46577;49.004;12.120;2023-07-13T15:07:07;2.40;;;1.57;;
60726;SDS011;46577;49.004;12.120;2023-07-13T15:09:35;5.30;;;1.60;;
60726;SDS011;46577;49.004;12.120;2023-07-13T15:12:01;1.80;;;1.10;;